PDX weather

Portland International Airport
Portland, Oregon, United States

Public forecast

Using degrees Fahrenheit for public forecast. Weather courtesy of forecast.io.

METAR (pilot weather report)

Retrieved 2018/04/22 08:53 UTC (1 hour ago):

KPDX 220853Z 32010KT 10SM CLR 08/04 A3038 RMK AO2 SLP286 T00780039 58003

TAF (pilot weather forecast)

Retrieved 2018/04/22 06:22 UTC (4 hours ago):

TAF KPDX 220520Z 2206/2306 34007KT P6SM FEW060 FEW250 FM220700 VRB03KT P6SM SCT250 FM221900 32010G18KT P6SM SKC FM230400 32009KT P6SM SKC